createdAt,value
2023-02-12T00:00:57.739Z,100.00
2023-02-12T00:02:18.439Z,100.00
2023-02-12T00:03:18.985Z,100.00
2023-02-12T00:04:19.352Z,100.00
2023-02-12T00:05:19.753Z,100.00
2023-02-12T00:06:20.955Z,100.00
2023-02-12T00:07:21.397Z,100.00
2023-02-12T00:08:21.727Z,100.00
2023-02-12T00:09:22.370Z,100.00
2023-02-12T00:10:23.323Z,100.00
2023-02-12T00:11:27.409Z,100.00
2023-02-12T00:12:27.830Z,100.00
2023-02-12T00:13:30.614Z,100.00
2023-02-12T00:14:31.125Z,100.00
2023-02-12T00:15:33.982Z,100.00
2023-02-12T00:16:34.694Z,100.00
2023-02-12T00:17:35.236Z,100.00
2023-02-12T00:18:36.018Z,100.00
2023-02-12T00:19:36.393Z,100.00
2023-02-12T00:20:38.176Z,100.00
2023-02-12T00:21:38.658Z,100.00
2023-02-12T00:22:39.050Z,100.00
2023-02-12T00:23:40.816Z,100.00
2023-02-12T00:24:41.358Z,100.00
2023-02-12T00:25:41.927Z,100.00
2023-02-12T00:26:42.592Z,100.00
2023-02-12T00:27:43.116Z,100.00
2023-02-12T00:28:44.435Z,100.00
2023-02-12T00:29:44.889Z,100.00
2023-02-12T00:30:45.453Z,100.00
2023-02-12T00:31:46.184Z,100.00
2023-02-12T00:32:46.677Z,100.00
2023-02-12T00:33:47.319Z,100.00
2023-02-12T00:34:47.970Z,100.00
2023-02-12T00:35:58.939Z,100.00
2023-02-12T00:36:59.557Z,100.00
2023-02-12T00:38:00.372Z,100.00
2023-02-12T00:39:01.402Z,100.00
2023-02-12T00:40:02.098Z,100.00
2023-02-12T00:41:02.549Z,100.00
2023-02-12T00:42:04.359Z,100.00
2023-02-12T00:43:05.349Z,100.00
2023-02-12T00:44:06.753Z,100.00
2023-02-12T00:45:08.819Z,100.00
2023-02-12T00:46:09.398Z,100.00
2023-02-12T00:47:10.360Z,100.00
2023-02-12T00:48:10.918Z,100.00
2023-02-12T00:49:11.305Z,100.00
2023-02-12T00:50:12.108Z,100.00
2023-02-12T00:51:14.829Z,100.00
2023-02-12T00:52:15.436Z,100.00
2023-02-12T00:53:17.090Z,100.00
2023-02-12T00:54:17.818Z,100.00
2023-02-12T00:55:18.744Z,100.00
2023-02-12T00:56:19.186Z,100.00
2023-02-12T00:57:22.398Z,100.00
2023-02-12T00:58:23.664Z,100.00
2023-02-12T00:59:25.388Z,100.00
2023-02-12T01:00:26.109Z,100.00
2023-02-12T01:01:26.858Z,100.00
2023-02-12T01:02:27.406Z,100.00
2023-02-12T01:03:28.172Z,100.00
2023-02-12T01:04:28.575Z,100.00
2023-02-12T01:05:30.161Z,100.00
2023-02-12T01:06:30.752Z,100.00
2023-02-12T01:07:31.348Z,100.00
2023-02-12T01:08:32.419Z,100.00
2023-02-12T01:09:32.806Z,100.00
2023-02-12T01:10:34.337Z,100.00
2023-02-12T01:11:34.802Z,100.00
2023-02-12T01:12:35.330Z,100.00
2023-02-12T01:13:35.794Z,100.00
2023-02-12T01:14:36.241Z,100.00
2023-02-12T01:15:37.490Z,100.00
2023-02-12T01:16:39.783Z,100.00
2023-02-12T01:17:40.281Z,100.00
2023-02-12T01:18:42.799Z,100.00
2023-02-12T01:19:43.247Z,100.00
2023-02-12T01:20:43.683Z,100.00
2023-02-12T01:21:44.113Z,100.00
2023-02-12T01:22:45.379Z,100.00
2023-02-12T01:23:48.563Z,100.00
2023-02-12T01:24:49.095Z,100.00
2023-02-12T01:25:49.535Z,100.00
2023-02-12T01:26:49.934Z,100.00
2023-02-12T01:27:53.796Z,100.00
2023-02-12T01:28:58.602Z,100.00
2023-02-12T01:30:00.221Z,100.00
2023-02-12T01:31:00.735Z,100.00
2023-02-12T01:32:01.362Z,100.00
2023-02-12T01:33:01.940Z,100.00
2023-02-12T01:34:03.927Z,100.00
2023-02-12T01:35:07.821Z,100.00
2023-02-12T01:36:09.519Z,100.00
2023-02-12T01:37:09.973Z,100.00
2023-02-12T01:38:10.415Z,100.00
2023-02-12T01:39:11.907Z,100.00
2023-02-12T01:40:17.333Z,100.00
2023-02-12T01:41:23.556Z,100.00
2023-02-12T01:42:24.030Z,100.00
2023-02-12T01:43:24.442Z,100.00
2023-02-12T01:44:29.196Z,100.00
2023-02-12T01:45:48.462Z,100.00
2023-02-12T01:46:56.053Z,100.00
2023-02-12T01:48:01.085Z,100.00
2023-02-12T01:49:06.773Z,100.00
2023-02-12T01:50:12.448Z,100.00
2023-02-12T01:51:19.729Z,100.00
2023-02-12T01:52:29.870Z,100.00
2023-02-12T01:53:44.123Z,100.00
2023-02-12T01:54:48.230Z,100.00
2023-02-12T01:55:54.890Z,100.00
2023-02-12T01:56:56.590Z,100.00
2023-02-12T01:57:57.650Z,100.00
2023-02-12T01:58:58.518Z,100.00
2023-02-12T02:00:05.778Z,100.00
2023-02-12T02:01:28.150Z,100.00
2023-02-12T02:02:31.465Z,100.00
2023-02-12T02:03:35.401Z,100.00
2023-02-12T02:04:55.150Z,100.00
2023-02-12T02:06:05.699Z,100.00
2023-02-12T02:07:10.531Z,100.00
2023-02-12T02:08:12.623Z,100.00
2023-02-12T02:09:13.959Z,100.00
2023-02-12T02:10:14.574Z,100.00
2023-02-12T02:11:33.948Z,100.00
2023-02-12T02:12:54.985Z,100.00
2023-02-12T02:14:14.842Z,100.00
2023-02-12T02:15:15.307Z,100.00
2023-02-12T02:16:29.044Z,100.00
2023-02-12T02:17:48.481Z,100.00
2023-02-12T02:19:01.965Z,100.00
2023-02-12T02:20:36.606Z,100.00
2023-02-12T02:22:17.866Z,100.00
2023-02-12T02:23:41.783Z,100.00
2023-02-12T02:25:03.596Z,100.00
2023-02-12T02:26:33.553Z,100.00
2023-02-12T02:28:11.441Z,100.00
2023-02-12T02:29:37.140Z,100.00
2023-02-12T02:30:53.620Z,100.00
2023-02-12T02:32:17.754Z,100.00
2023-02-12T02:33:26.267Z,100.00
2023-02-12T02:34:46.573Z,100.00
2023-02-12T02:36:13.315Z,100.00
2023-02-12T02:37:25.334Z,100.00
2023-02-12T02:38:59.830Z,100.00
2023-02-12T02:40:18.884Z,100.00
2023-02-12T02:41:37.528Z,100.00
2023-02-12T02:43:10.509Z,100.00
2023-02-12T02:44:28.686Z,100.00
2023-02-12T02:45:35.457Z,100.00
2023-02-12T02:46:46.390Z,100.00
2023-02-12T02:48:05.541Z,100.00
2023-02-12T02:49:13.169Z,100.00
2023-02-12T02:50:22.406Z,100.00
2023-02-12T02:51:32.940Z,100.00
2023-02-12T02:52:42.429Z,100.00
2023-02-12T02:54:08.936Z,100.00
2023-02-12T02:55:14.800Z,100.00
2023-02-12T02:56:20.217Z,100.00
2023-02-12T02:57:57.498Z,100.00
2023-02-12T02:59:08.998Z,100.00
2023-02-12T03:00:17.928Z,100.00
2023-02-12T03:01:27.620Z,100.00
2023-02-12T03:02:34.761Z,100.00
2023-02-12T03:03:57.960Z,100.00
2023-02-12T03:05:03.100Z,100.00
2023-02-12T03:06:13.311Z,100.00
2023-02-12T03:07:28.917Z,100.00
2023-02-12T03:08:37.086Z,100.00
2023-02-12T03:09:44.880Z,100.00
2023-02-12T03:11:03.090Z,100.00
2023-02-12T03:12:13.886Z,100.00
2023-02-12T03:13:25.471Z,100.00
2023-02-12T03:14:36.299Z,100.00
2023-02-12T03:15:46.417Z,100.00
2023-02-12T03:17:08.303Z,100.00
2023-02-12T03:18:18.942Z,100.00
2023-02-12T03:19:24.614Z,100.00
2023-02-12T03:20:30.679Z,100.00
2023-02-12T03:21:40.829Z,100.00
2023-02-12T03:23:16.686Z,100.00
2023-02-12T03:24:35.422Z,100.00
2023-02-12T03:25:50.234Z,100.00
2023-02-12T03:27:02.677Z,100.00
2023-02-12T03:28:17.836Z,100.00
2023-02-12T03:29:18.572Z,100.00
2023-02-12T03:30:21.326Z,100.00
2023-02-12T03:31:54.017Z,100.00
2023-02-12T03:33:03.699Z,100.00
2023-02-12T03:34:13.384Z,100.00
2023-02-12T03:35:13.840Z,100.00
2023-02-12T03:36:37.653Z,100.00
2023-02-12T03:38:17.844Z,100.00
2023-02-12T03:39:28.916Z,100.00
2023-02-12T03:41:01.675Z,100.00
2023-02-12T03:42:09.907Z,100.00
2023-02-12T03:43:29.672Z,100.00
2023-02-12T03:44:42.038Z,100.00
2023-02-12T03:46:14.832Z,100.00
2023-02-12T03:47:45.075Z,100.00
2023-02-12T03:49:00.568Z,100.00
2023-02-12T03:50:13.612Z,100.00
2023-02-12T03:51:25.322Z,100.00
2023-02-12T03:52:26.499Z,100.00
2023-02-12T03:53:29.959Z,100.00
2023-02-12T03:54:31.326Z,100.00
2023-02-12T03:55:40.128Z,100.00
2023-02-12T03:56:51.960Z,100.00
2023-02-12T03:58:00.620Z,100.00
2023-02-12T03:59:02.322Z,100.00
2023-02-12T04:00:08.372Z,100.00
2023-02-12T04:01:14.887Z,100.00
2023-02-12T04:02:18.380Z,100.00
2023-02-12T04:03:19.197Z,100.00
2023-02-12T04:04:20.929Z,100.00
2023-02-12T04:05:25.087Z,100.00
2023-02-12T04:06:30.697Z,100.00
2023-02-12T04:07:31.949Z,100.00
2023-02-12T04:08:32.939Z,100.00
2023-02-12T04:09:33.371Z,100.00
2023-02-12T04:11:07.452Z,100.00
2023-02-12T04:12:46.461Z,100.00
2023-02-12T04:14:03.386Z,100.00
2023-02-12T04:15:37.365Z,100.00
2023-02-12T04:16:50.439Z,100.00
2023-02-12T04:18:06.921Z,100.00
2023-02-12T04:19:14.293Z,100.00
2023-02-12T04:20:41.017Z,100.00
2023-02-12T04:22:27.685Z,100.00
2023-02-12T04:23:28.234Z,100.00
2023-02-12T04:25:06.337Z,100.00
2023-02-12T04:26:23.835Z,100.00
2023-02-12T04:27:33.511Z,100.00
2023-02-12T04:28:47.530Z,100.00
2023-02-12T04:30:01.709Z,100.00
2023-02-12T04:31:05.053Z,100.00
2023-02-12T04:32:28.100Z,100.00
2023-02-12T04:33:56.755Z,100.00
2023-02-12T04:35:18.677Z,100.00
2023-02-12T04:36:26.596Z,100.00
2023-02-12T04:37:39.449Z,100.00
2023-02-12T04:38:51.435Z,100.00
2023-02-12T04:39:54.164Z,100.00
2023-02-12T04:40:56.133Z,100.00
2023-02-12T04:42:01.452Z,100.00
2023-02-12T04:43:02.142Z,100.00
2023-02-12T04:44:24.700Z,100.00
2023-02-12T04:45:32.424Z,100.00
2023-02-12T04:46:33.428Z,100.00
2023-02-12T04:47:33.891Z,100.00
2023-02-12T04:48:44.461Z,100.00
2023-02-12T04:49:45.257Z,100.00
2023-02-12T04:50:46.023Z,100.00
2023-02-12T04:51:48.473Z,100.00
2023-02-12T04:52:49.086Z,100.00
2023-02-12T04:55:04.487Z,100.00
2023-02-12T04:56:05.424Z,100.00
2023-02-12T04:57:05.850Z,100.00
2023-02-12T04:58:06.634Z,100.00
2023-02-12T04:59:07.093Z,100.00
2023-02-12T05:00:12.740Z,100.00
2023-02-12T05:01:13.210Z,100.00
2023-02-12T05:02:13.861Z,100.00
2023-02-12T05:03:14.243Z,100.00
2023-02-12T05:04:17.377Z,100.00
2023-02-12T05:05:17.885Z,100.00
2023-02-12T05:06:18.752Z,100.00
2023-02-12T05:07:19.115Z,100.00
2023-02-12T05:08:19.561Z,100.00
2023-02-12T05:09:21.913Z,100.00
2023-02-12T05:10:23.013Z,100.00
2023-02-12T05:11:24.156Z,100.00
2023-02-12T05:12:24.583Z,100.00
2023-02-12T05:13:25.048Z,100.00
2023-02-12T05:14:25.534Z,100.00
2023-02-12T05:15:26.126Z,100.00
2023-02-12T05:16:26.912Z,100.00
2023-02-12T05:17:27.478Z,100.00
2023-02-12T05:18:27.838Z,100.00
2023-02-12T05:19:28.332Z,100.00
2023-02-12T05:20:28.853Z,100.00
2023-02-12T05:21:30.329Z,100.00
2023-02-12T05:22:31.482Z,100.00
2023-02-12T05:23:35.260Z,100.00
2023-02-12T05:24:36.842Z,100.00
2023-02-12T05:25:37.304Z,100.00
2023-02-12T05:26:37.648Z,100.00
2023-02-12T05:27:38.177Z,100.00
2023-02-12T05:28:38.666Z,100.00
2023-02-12T05:29:39.180Z,100.00
2023-02-12T05:30:39.717Z,100.00
2023-02-12T05:31:40.334Z,100.00
2023-02-12T05:32:40.884Z,100.00
2023-02-12T05:33:43.578Z,100.00
2023-02-12T05:34:43.965Z,100.00
2023-02-12T05:35:44.579Z,100.00
2023-02-12T05:36:45.130Z,100.00
2023-02-12T05:37:45.580Z,100.00
2023-02-12T05:38:46.631Z,100.00
2023-02-12T05:39:49.711Z,100.00
2023-02-12T05:40:50.253Z,100.00
2023-02-12T05:41:50.805Z,100.00
2023-02-12T05:42:51.141Z,100.00
2023-02-12T05:43:52.779Z,100.00
2023-02-12T05:44:53.227Z,100.00
2023-02-12T05:45:54.104Z,100.00
2023-02-12T05:46:54.581Z,100.00
2023-02-12T05:47:56.245Z,100.00
2023-02-12T05:48:56.772Z,100.00
2023-02-12T05:49:57.100Z,100.00
2023-02-12T05:51:08.255Z,100.00
2023-02-12T05:52:08.953Z,100.00
2023-02-12T05:53:09.411Z,100.00
2023-02-12T05:54:10.849Z,100.00
2023-02-12T05:55:11.450Z,100.00
2023-02-12T05:56:25.412Z,100.00
2023-02-12T05:57:26.305Z,100.00
2023-02-12T05:58:26.669Z,100.00
2023-02-12T05:59:27.404Z,100.00
2023-02-12T06:00:28.140Z,100.00
2023-02-12T06:01:35.257Z,100.00
2023-02-12T06:02:36.587Z,100.00
2023-02-12T06:03:37.328Z,100.00
2023-02-12T06:04:37.852Z,100.00
2023-02-12T06:05:38.456Z,100.00
2023-02-12T06:06:41.506Z,100.00
2023-02-12T06:07:42.298Z,100.00
2023-02-12T06:08:43.312Z,100.00
2023-02-12T06:09:44.094Z,100.00
2023-02-12T06:10:44.639Z,100.00
2023-02-12T06:11:45.319Z,100.00
2023-02-12T06:12:45.822Z,100.00
2023-02-12T06:13:47.726Z,100.00
2023-02-12T06:14:48.206Z,100.00
2023-02-12T06:15:48.617Z,100.00
2023-02-12T06:16:51.263Z,100.00
2023-02-12T06:17:51.613Z,100.00
2023-02-12T06:18:54.327Z,100.00
2023-02-12T06:19:55.033Z,100.00
2023-02-12T06:20:55.781Z,100.00
2023-02-12T06:21:56.458Z,100.00
2023-02-12T06:22:57.055Z,100.00
2023-02-12T06:23:58.689Z,100.00
2023-02-12T06:24:59.492Z,100.00
2023-02-12T06:26:00.076Z,100.00
2023-02-12T06:27:00.434Z,100.00
2023-02-12T06:28:00.987Z,100.00
2023-02-12T06:29:01.609Z,100.00
2023-02-12T06:30:02.145Z,100.00
2023-02-12T06:31:03.505Z,100.00
2023-02-12T06:32:04.285Z,100.00
2023-02-12T06:33:04.969Z,100.00
2023-02-12T06:34:08.729Z,100.00
2023-02-12T06:35:09.241Z,100.00
2023-02-12T06:36:09.789Z,100.00
2023-02-12T06:37:11.722Z,100.00
2023-02-12T06:38:12.181Z,100.00
2023-02-12T06:39:14.770Z,100.00
2023-02-12T06:40:15.492Z,100.00
2023-02-12T06:41:16.023Z,100.00
2023-02-12T06:42:16.667Z,100.00
2023-02-12T06:43:17.736Z,100.00
2023-02-12T06:44:18.159Z,100.00
2023-02-12T06:45:18.625Z,100.00
2023-02-12T06:46:19.439Z,100.00
2023-02-12T06:47:19.958Z,100.00
2023-02-12T06:48:20.364Z,100.00
2023-02-12T06:49:20.891Z,100.00
2023-02-12T06:50:21.490Z,100.00
2023-02-12T06:51:22.846Z,100.00
2023-02-12T06:52:23.238Z,100.00
2023-02-12T06:53:23.626Z,100.00
2023-02-12T06:54:24.153Z,100.00
2023-02-12T06:55:24.870Z,100.00
2023-02-12T06:56:26.445Z,100.00
2023-02-12T06:57:29.230Z,100.00
2023-02-12T06:58:30.097Z,100.00
2023-02-12T06:59:30.804Z,100.00
2023-02-12T07:00:31.525Z,100.00
2023-02-12T07:01:32.361Z,100.00
2023-02-12T07:02:32.997Z,100.00
2023-02-12T07:03:33.882Z,100.00
2023-02-12T07:04:34.385Z,100.00
2023-02-12T07:05:37.134Z,100.00
2023-02-12T07:06:38.032Z,100.00
2023-02-12T07:07:38.422Z,100.00
2023-02-12T07:08:40.015Z,100.00
2023-02-12T07:09:40.621Z,100.00
2023-02-12T07:10:41.137Z,100.00
2023-02-12T07:11:41.750Z,100.00
2023-02-12T07:12:42.326Z,100.00
2023-02-12T07:13:44.440Z,100.00
2023-02-12T07:14:45.071Z,100.00
2023-02-12T07:15:45.585Z,100.00
2023-02-12T07:16:46.029Z,100.00
2023-02-12T07:17:46.504Z,100.00
2023-02-12T07:18:47.622Z,100.00
2023-02-12T07:19:47.997Z,100.00
2023-02-12T07:20:48.343Z,100.00
2023-02-12T07:21:48.904Z,100.00
2023-02-12T07:22:49.438Z,100.00
2023-02-12T07:23:52.579Z,100.00
2023-02-12T07:24:53.230Z,100.00
2023-02-12T07:25:58.193Z,100.00
2023-02-12T07:26:58.946Z,100.00
2023-02-12T07:27:59.590Z,100.00
2023-02-12T07:29:00.166Z,100.00
2023-02-12T07:30:00.828Z,100.00
2023-02-12T07:31:11.331Z,99.94
2023-02-12T07:32:12.159Z,99.99
2023-02-12T07:33:13.111Z,99.77
2023-02-12T07:34:13.623Z,99.34
2023-02-12T07:35:14.108Z,99.87
2023-02-12T07:36:19.286Z,100.00
2023-02-12T07:37:22.279Z,99.82
2023-02-12T07:38:22.776Z,99.28
2023-02-12T07:39:23.445Z,98.59
2023-02-12T07:40:23.829Z,99.32
2023-02-12T07:41:28.450Z,98.91
2023-02-12T07:42:29.582Z,98.85
2023-02-12T07:43:32.544Z,97.81
2023-02-12T07:44:34.033Z,97.75
2023-02-12T07:45:34.429Z,97.31
2023-02-12T07:46:41.944Z,96.76
2023-02-12T07:47:42.355Z,95.93
2023-02-12T07:48:44.146Z,95.96
2023-02-12T07:49:44.629Z,96.91
2023-02-12T07:50:45.018Z,96.73
2023-02-12T07:51:46.511Z,96.42
2023-02-12T07:52:51.979Z,95.82
2023-02-12T07:53:53.633Z,95.75
2023-02-12T07:54:54.003Z,95.49
2023-02-12T07:55:54.743Z,95.22
2023-02-12T07:56:55.347Z,94.83
2023-02-12T07:57:55.801Z,95.14
2023-02-12T07:58:57.692Z,94.98
2023-02-12T07:59:58.108Z,94.64
2023-02-12T08:00:58.530Z,94.23
2023-02-12T08:02:00.310Z,93.77
2023-02-12T08:03:00.761Z,94.02
2023-02-12T08:04:07.069Z,94.38
2023-02-12T08:05:07.694Z,94.84
2023-02-12T08:06:20.415Z,94.69
2023-02-12T08:07:20.836Z,94.82
2023-02-12T08:08:21.226Z,95.41
2023-02-12T08:09:25.357Z,95.72
2023-02-12T08:10:25.922Z,96.03
2023-02-12T08:11:28.612Z,96.52
2023-02-12T08:12:29.024Z,95.83
2023-02-12T08:13:29.578Z,95.09
2023-02-12T08:14:30.210Z,93.83
2023-02-12T08:15:30.665Z,93.05
2023-02-12T08:16:35.427Z,92.85
2023-02-12T08:17:35.947Z,92.99
2023-02-12T08:18:36.365Z,93.36
2023-02-12T08:19:36.877Z,92.64
2023-02-12T08:20:37.364Z,92.89
2023-02-12T08:21:38.740Z,93.34
2023-02-12T08:22:39.134Z,93.72
2023-02-12T08:23:40.228Z,93.60
2023-02-12T08:24:42.075Z,93.97
2023-02-12T08:25:42.522Z,93.84
2023-02-12T08:26:43.714Z,94.25
2023-02-12T08:27:44.090Z,93.91
2023-02-12T08:28:47.681Z,94.05
2023-02-12T08:29:48.572Z,94.10
2023-02-12T08:30:49.337Z,94.49
2023-02-12T08:31:56.382Z,94.26
2023-02-12T08:32:56.786Z,94.51
2023-02-12T08:33:58.336Z,93.63
2023-02-12T08:34:58.873Z,92.53
2023-02-12T08:36:10.792Z,92.37
2023-02-12T08:37:11.309Z,91.88
2023-02-12T08:38:11.647Z,90.76
2023-02-12T08:39:12.982Z,89.53
2023-02-12T08:40:13.582Z,89.39
2023-02-12T08:41:20.657Z,89.81
2023-02-12T08:42:25.023Z,89.85
2023-02-12T08:43:26.690Z,89.91
2023-02-12T08:44:28.415Z,89.97
2023-02-12T08:45:28.836Z,89.51
2023-02-12T08:46:32.772Z,89.73
2023-02-12T08:47:33.662Z,90.09
2023-02-12T08:48:35.237Z,90.89
2023-02-12T08:49:35.691Z,91.30
2023-02-12T08:50:36.201Z,90.05
2023-02-12T08:51:40.307Z,90.12
2023-02-12T08:52:43.033Z,91.07
2023-02-12T08:53:46.879Z,91.08
2023-02-12T08:54:47.391Z,90.65
2023-02-12T08:55:50.928Z,90.60
2023-02-12T08:56:56.422Z,90.29
2023-02-12T08:57:57.666Z,90.67
2023-02-12T08:58:59.793Z,90.89
2023-02-12T09:00:00.376Z,91.12
2023-02-12T09:01:01.817Z,91.36
2023-02-12T09:02:03.895Z,91.05
2023-02-12T09:03:04.669Z,90.80
2023-02-12T09:04:06.026Z,90.04
2023-02-12T09:05:06.566Z,90.39
2023-02-12T09:06:08.744Z,90.34
2023-02-12T09:07:10.971Z,90.22
2023-02-12T09:08:12.105Z,90.31
2023-02-12T09:09:14.212Z,90.39
2023-02-12T09:10:15.085Z,90.54
2023-02-12T09:11:23.486Z,90.29
2023-02-12T09:12:23.967Z,90.05
2023-02-12T09:13:25.192Z,90.08
2023-02-12T09:14:25.596Z,90.17
2023-02-12T09:15:25.929Z,90.55
2023-02-12T09:16:27.976Z,90.13
2023-02-12T09:17:29.923Z,90.26
2023-02-12T09:18:31.798Z,89.91
2023-02-12T09:19:32.343Z,89.68
2023-02-12T09:20:36.449Z,89.88
2023-02-12T09:21:37.033Z,89.16
2023-02-12T09:22:38.130Z,88.15
2023-02-12T09:23:39.818Z,87.55
2023-02-12T09:24:40.498Z,87.75
2023-02-12T09:25:44.641Z,87.49
2023-02-12T09:26:45.114Z,87.10
2023-02-12T09:27:46.111Z,87.34
2023-02-12T09:28:49.141Z,86.96
2023-02-12T09:29:49.591Z,87.13
2023-02-12T09:30:50.847Z,86.62
2023-02-12T09:31:51.596Z,86.87
2023-02-12T09:32:52.151Z,87.23
2023-02-12T09:34:06.510Z,87.30
2023-02-12T09:35:08.148Z,86.88
2023-02-12T09:36:13.189Z,87.73
2023-02-12T09:37:14.224Z,87.14
2023-02-12T09:38:15.044Z,87.05
2023-02-12T09:39:16.123Z,87.18
2023-02-12T09:40:32.210Z,87.79
2023-02-12T09:41:48.421Z,88.08
2023-02-12T09:43:07.112Z,88.24
2023-02-12T09:44:25.032Z,87.65
2023-02-12T09:45:33.256Z,86.99
2023-02-12T09:47:04.958Z,86.73
2023-02-12T09:48:05.684Z,86.36
2023-02-12T09:49:28.122Z,86.80
2023-02-12T09:50:28.871Z,86.29
2023-02-12T09:51:31.613Z,86.64
2023-02-12T09:52:34.910Z,86.93
2023-02-12T09:53:45.174Z,86.99
2023-02-12T09:54:48.640Z,86.81
2023-02-12T09:55:49.274Z,86.32
2023-02-12T09:56:57.770Z,86.16
2023-02-12T09:58:03.918Z,86.43
2023-02-12T09:59:08.280Z,86.43
2023-02-12T10:00:30.607Z,86.54
2023-02-12T10:01:31.523Z,86.82
2023-02-12T10:02:36.330Z,86.81
2023-02-12T10:03:37.182Z,86.25
2023-02-12T10:04:43.981Z,86.81
2023-02-12T10:06:01.040Z,86.88
2023-02-12T10:07:14.871Z,85.15
2023-02-12T10:08:49.853Z,84.23
2023-02-12T10:10:29.463Z,84.81
2023-02-12T10:11:54.338Z,84.27
2023-02-12T10:13:07.120Z,82.98
2023-02-12T10:14:52.936Z,83.55
2023-02-12T10:16:30.016Z,83.91
2023-02-12T10:17:37.815Z,84.42
2023-02-12T10:19:11.156Z,84.66
2023-02-12T10:20:29.187Z,83.89
2023-02-12T10:21:51.600Z,82.61
2023-02-12T10:23:32.355Z,81.61
2023-02-12T10:25:03.813Z,81.36
2023-02-12T10:26:28.511Z,81.47
2023-02-12T10:27:41.082Z,81.64
2023-02-12T10:28:43.105Z,80.76
2023-02-12T10:29:48.709Z,80.68
2023-02-12T10:31:00.020Z,80.39
2023-02-12T10:32:35.205Z,80.12
2023-02-12T10:33:48.328Z,79.69
2023-02-12T10:34:51.847Z,80.17
2023-02-12T10:36:13.559Z,80.24
2023-02-12T10:37:31.990Z,80.53
2023-02-12T10:38:42.299Z,79.85
2023-02-12T10:39:56.281Z,79.13
2023-02-12T10:41:01.378Z,79.48
2023-02-12T10:42:12.222Z,79.71
2023-02-12T10:43:13.568Z,80.21
2023-02-12T10:44:14.535Z,79.91
2023-02-12T10:45:18.394Z,79.91
2023-02-12T10:46:19.137Z,79.31
2023-02-12T10:47:23.271Z,79.55
2023-02-12T10:48:35.336Z,79.74
2023-02-12T10:49:35.893Z,78.88
2023-02-12T10:51:07.909Z,79.55
2023-02-12T10:52:44.399Z,78.84
2023-02-12T10:53:45.810Z,79.45
2023-02-12T10:54:50.430Z,78.62
2023-02-12T10:56:06.077Z,77.42
2023-02-12T10:57:29.951Z,76.95
2023-02-12T10:58:30.573Z,77.75
2023-02-12T10:59:31.248Z,76.96
2023-02-12T11:00:37.832Z,76.45
2023-02-12T11:01:40.533Z,76.82
2023-02-12T11:03:00.628Z,76.86
2023-02-12T11:04:22.347Z,76.12
2023-02-12T11:05:28.152Z,76.06
2023-02-12T11:06:32.413Z,76.46
2023-02-12T11:07:46.775Z,76.08
2023-02-12T11:08:47.732Z,76.32
2023-02-12T11:09:50.814Z,75.17
2023-02-12T11:10:52.327Z,74.49
2023-02-12T11:11:52.934Z,73.99
2023-02-12T11:12:54.767Z,74.80
2023-02-12T11:14:16.832Z,75.06
2023-02-12T11:15:22.975Z,74.70
2023-02-12T11:16:28.574Z,74.58
2023-02-12T11:17:40.669Z,74.59
2023-02-12T11:18:42.184Z,73.86
2023-02-12T11:19:42.956Z,73.77
2023-02-12T11:20:52.746Z,73.55
2023-02-12T11:22:18.320Z,72.65
2023-02-12T11:23:34.726Z,72.56
2023-02-12T11:24:37.218Z,72.60
2023-02-12T11:25:37.680Z,72.76
2023-02-12T11:26:38.079Z,72.50
2023-02-12T11:27:39.329Z,72.59
2023-02-12T11:28:59.082Z,72.87
2023-02-12T11:30:19.461Z,72.88
2023-02-12T11:31:22.001Z,73.03
2023-02-12T11:32:22.742Z,72.93
2023-02-12T11:33:24.903Z,73.18
2023-02-12T11:34:25.895Z,73.20
2023-02-12T11:35:27.846Z,73.42
2023-02-12T11:36:28.510Z,73.42
2023-02-12T11:37:36.205Z,72.98
2023-02-12T11:38:47.255Z,73.17
2023-02-12T11:39:50.818Z,73.55
2023-02-12T11:40:57.980Z,73.46
2023-02-12T11:42:24.862Z,73.05
2023-02-12T11:43:29.722Z,73.02
2023-02-12T11:44:39.807Z,72.49
2023-02-12T11:45:52.712Z,72.81
2023-02-12T11:47:03.210Z,72.85
2023-02-12T11:48:18.728Z,72.44
2023-02-12T11:49:26.565Z,73.41
2023-02-12T11:50:31.098Z,74.03
2023-02-12T11:51:32.178Z,72.73
2023-02-12T11:52:37.200Z,72.28
2023-02-12T11:53:46.635Z,72.39
2023-02-12T11:54:50.512Z,71.73
2023-02-12T11:56:21.172Z,72.13
2023-02-12T11:57:42.259Z,71.63
2023-02-12T11:58:44.271Z,71.09
2023-02-12T11:59:46.860Z,70.63
2023-02-12T12:01:02.500Z,70.72
2023-02-12T12:02:23.083Z,72.20
2023-02-12T12:03:51.732Z,71.60
2023-02-12T12:04:59.518Z,71.87
2023-02-12T12:06:27.000Z,72.06
2023-02-12T12:07:34.745Z,72.80
2023-02-12T12:08:44.065Z,72.95
2023-02-12T12:09:56.234Z,72.93
2023-02-12T12:11:17.334Z,72.97
2023-02-12T12:12:39.945Z,73.11
2023-02-12T12:13:59.490Z,72.26
2023-02-12T12:15:29.927Z,71.06
2023-02-12T12:16:56.464Z,71.82
2023-02-12T12:18:49.499Z,71.54
2023-02-12T12:20:12.979Z,71.27
2023-02-12T12:21:36.368Z,71.21
2023-02-12T12:23:15.887Z,71.76
2023-02-12T12:24:39.681Z,71.64
2023-02-12T12:25:47.633Z,71.35
2023-02-12T12:27:03.770Z,71.09
2023-02-12T12:28:29.663Z,71.39
2023-02-12T12:30:06.156Z,70.41
2023-02-12T12:31:19.186Z,71.36
2023-02-12T12:32:24.878Z,71.63
2023-02-12T12:33:47.460Z,71.16
2023-02-12T12:34:48.191Z,70.98
2023-02-12T12:36:13.160Z,70.32
2023-02-12T12:37:41.092Z,69.76
2023-02-12T12:39:11.979Z,70.18
2023-02-12T12:40:42.111Z,69.08
2023-02-12T12:42:16.603Z,67.48
2023-02-12T12:43:28.027Z,67.76
2023-02-12T12:44:41.455Z,65.37
2023-02-12T12:45:50.755Z,65.00
2023-02-12T12:46:54.273Z,65.26
2023-02-12T12:48:10.086Z,65.19
2023-02-12T12:49:43.189Z,64.35
2023-02-12T12:51:08.789Z,62.68
2023-02-12T12:52:26.097Z,63.87
2023-02-12T12:53:45.715Z,64.10
2023-02-12T12:55:13.396Z,63.21
2023-02-12T12:56:33.743Z,62.01
2023-02-12T12:57:43.745Z,61.85
2023-02-12T12:59:04.047Z,62.13
2023-02-12T13:00:15.762Z,61.44
2023-02-12T13:01:35.073Z,60.35
2023-02-12T13:03:09.961Z,60.09
2023-02-12T13:04:13.254Z,59.29
2023-02-12T13:05:41.909Z,60.33
2023-02-12T13:06:55.485Z,58.67
2023-02-12T13:08:40.516Z,58.69
2023-02-12T13:10:15.186Z,59.70
2023-02-12T13:11:33.635Z,60.11
2023-02-12T13:12:52.086Z,59.16
2023-02-12T13:14:08.208Z,59.19
2023-02-12T13:15:18.886Z,59.36
2023-02-12T13:16:25.239Z,58.74
2023-02-12T13:17:40.729Z,58.24
2023-02-12T13:19:19.838Z,58.19
2023-02-12T13:20:26.153Z,58.35
2023-02-12T13:21:55.452Z,58.62
2023-02-12T13:22:55.814Z,58.23
2023-02-12T13:24:05.325Z,58.15
2023-02-12T13:25:21.331Z,58.35
2023-02-12T13:26:31.906Z,59.55
2023-02-12T13:27:42.900Z,60.22
2023-02-12T13:28:50.193Z,60.68
2023-02-12T13:30:03.929Z,61.40
2023-02-12T13:31:24.870Z,61.25
2023-02-12T13:32:39.907Z,61.54
2023-02-12T13:33:50.848Z,61.82
2023-02-12T13:34:54.600Z,62.06
2023-02-12T13:36:00.374Z,62.36
2023-02-12T13:37:04.872Z,61.76
2023-02-12T13:38:08.702Z,61.24
2023-02-12T13:39:40.093Z,61.49
2023-02-12T13:40:40.911Z,61.44
2023-02-12T13:41:53.530Z,60.86
2023-02-12T13:43:12.645Z,60.96
2023-02-12T13:44:35.780Z,61.02
2023-02-12T13:45:52.146Z,61.75
2023-02-12T13:47:17.870Z,62.18
2023-02-12T13:48:39.924Z,62.86
2023-02-12T13:49:44.078Z,63.49
2023-02-12T13:51:04.586Z,62.54
2023-02-12T13:52:19.204Z,61.92
2023-02-12T13:53:45.521Z,62.82
2023-02-12T13:55:01.416Z,61.83
2023-02-12T13:56:01.967Z,61.41
2023-02-12T13:57:09.155Z,60.69
2023-02-12T13:58:34.589Z,60.72
2023-02-12T13:59:35.277Z,60.91
2023-02-12T14:00:51.689Z,60.61
2023-02-12T14:01:52.692Z,61.16
2023-02-12T14:02:53.710Z,60.26
2023-02-12T14:03:55.032Z,60.52
2023-02-12T14:05:20.757Z,60.62
2023-02-12T14:06:24.274Z,60.84
2023-02-12T14:07:44.935Z,60.62
2023-02-12T14:09:10.566Z,60.99
2023-02-12T14:10:34.498Z,61.18
2023-02-12T14:11:49.805Z,61.03
2023-02-12T14:12:53.296Z,61.50
2023-02-12T14:13:59.828Z,61.84
2023-02-12T14:15:28.720Z,62.44
2023-02-12T14:16:29.785Z,63.34
2023-02-12T14:17:30.590Z,64.11
2023-02-12T14:18:36.895Z,64.79